Terminal Aerodrome Forecast
Issued by NWS Twin Cities, MN

Home | Current Version | Previous Version | Graphics & Text | Print | Product List | Glossary On
Versions: 1 2 3 4 5 6 7 8 9 10 11 12 13 14 15 16 17
000
FTUS43 KMPX 092345
TAFSTC
TAF
KSTC 092345Z 1000/1024 29005KT P6SM SCT020 BKN025
      TEMPO 1000/1002 SCT025
     FM100200 30005KT P6SM BKN120
     FM101500 VRB03KT P6SM SCT025 OVC080=

USA.gov is the U.S. government's official web portal to all federal, state and local government web resources and services.